sensor_id;sensor_type;location;lat;lon;timestamp;temperature;humidity
68578;SHT31;61668;45.388;11.784;2022-08-19T00:00:28;22.12;81.35
68578;SHT31;61668;45.388;11.784;2022-08-19T00:02:54;22.14;81.49
68578;SHT31;61668;45.388;11.784;2022-08-19T00:05:20;22.16;81.48
68578;SHT31;61668;45.388;11.784;2022-08-19T00:07:47;22.16;81.43
68578;SHT31;61668;45.388;11.784;2022-08-19T00:10:15;22.10;81.56
68578;SHT31;61668;45.388;11.784;2022-08-19T00:12:44;22.07;81.86
68578;SHT31;61668;45.388;11.784;2022-08-19T00:15:10;22.01;82.08
68578;SHT31;61668;45.388;11.784;2022-08-19T00:17:43;21.97;82.22
68578;SHT31;61668;45.388;11.784;2022-08-19T00:20:11;21.93;82.24
68578;SHT31;61668;45.388;11.784;2022-08-19T00:22:41;21.91;82.13
68578;SHT31;61668;45.388;11.784;2022-08-19T00:25:09;21.89;82.08
68578;SHT31;61668;45.388;11.784;2022-08-19T00:27:34;21.86;81.83
68578;SHT31;61668;45.388;11.784;2022-08-19T00:30:00;21.81;81.80
68578;SHT31;61668;45.388;11.784;2022-08-19T00:32:28;21.77;81.82
68578;SHT31;61668;45.388;11.784;2022-08-19T00:34:53;21.75;82.03
68578;SHT31;61668;45.388;11.784;2022-08-19T00:37:20;21.75;82.00
68578;SHT31;61668;45.388;11.784;2022-08-19T00:39:48;21.75;82.00
68578;SHT31;61668;45.388;11.784;2022-08-19T00:42:16;21.73;82.04
68578;SHT31;61668;45.388;11.784;2022-08-19T00:44:44;21.72;82.11
68578;SHT31;61668;45.388;11.784;2022-08-19T00:47:09;21.71;82.12
68578;SHT31;61668;45.388;11.784;2022-08-19T00:52:09;21.74;82.18
68578;SHT31;61668;45.388;11.784;2022-08-19T00:54:49;21.74;82.14
68578;SHT31;61668;45.388;11.784;2022-08-19T00:57:18;21.71;82.14
68578;SHT31;61668;45.388;11.784;2022-08-19T00:59:52;21.68;82.18
68578;SHT31;61668;45.388;11.784;2022-08-19T01:02:19;21.66;82.24
68578;SHT31;61668;45.388;11.784;2022-08-19T01:04:45;21.65;82.23
68578;SHT31;61668;45.388;11.784;2022-08-19T01:07:11;21.61;82.30
68578;SHT31;61668;45.388;11.784;2022-08-19T01:09:37;21.60;82.34
68578;SHT31;61668;45.388;11.784;2022-08-19T01:12:03;21.58;82.41
68578;SHT31;61668;45.388;11.784;2022-08-19T01:14:29;21.59;82.56
68578;SHT31;61668;45.388;11.784;2022-08-19T01:16:56;21.59;82.52
68578;SHT31;61668;45.388;11.784;2022-08-19T01:19:29;21.60;82.56
68578;SHT31;61668;45.388;11.784;2022-08-19T01:22:02;21.61;82.57
68578;SHT31;61668;45.388;11.784;2022-08-19T01:24:35;21.61;82.63
68578;SHT31;61668;45.388;11.784;2022-08-19T01:27:04;21.64;82.71
68578;SHT31;61668;45.388;11.784;2022-08-19T01:29:31;21.64;82.66
68578;SHT31;61668;45.388;11.784;2022-08-19T01:31:57;21.66;82.55
68578;SHT31;61668;45.388;11.784;2022-08-19T01:34:25;21.62;82.57
68578;SHT31;61668;45.388;11.784;2022-08-19T01:36:50;21.56;82.75
68578;SHT31;61668;45.388;11.784;2022-08-19T01:39:17;21.50;82.88
68578;SHT31;61668;45.388;11.784;2022-08-19T01:41:47;21.49;83.00
68578;SHT31;61668;45.388;11.784;2022-08-19T01:44:14;21.48;82.92
68578;SHT31;61668;45.388;11.784;2022-08-19T01:46:41;21.47;82.91
68578;SHT31;61668;45.388;11.784;2022-08-19T01:49:08;21.46;82.93
68578;SHT31;61668;45.388;11.784;2022-08-19T01:51:35;21.43;83.11
68578;SHT31;61668;45.388;11.784;2022-08-19T01:54:02;21.42;83.19
68578;SHT31;61668;45.388;11.784;2022-08-19T01:56:28;21.44;83.32
68578;SHT31;61668;45.388;11.784;2022-08-19T01:58:55;21.47;83.41
68578;SHT31;61668;45.388;11.784;2022-08-19T02:01:26;21.52;83.37
68578;SHT31;61668;45.388;11.784;2022-08-19T02:03:55;21.57;83.23
68578;SHT31;61668;45.388;11.784;2022-08-19T02:06:21;21.59;83.05
68578;SHT31;61668;45.388;11.784;2022-08-19T02:08:46;21.60;82.81
68578;SHT31;61668;45.388;11.784;2022-08-19T02:11:20;21.61;82.87
68578;SHT31;61668;45.388;11.784;2022-08-19T02:13:58;21.59;82.83
68578;SHT31;61668;45.388;11.784;2022-08-19T02:16:27;21.55;82.98
68578;SHT31;61668;45.388;11.784;2022-08-19T02:18:53;21.57;83.04
68578;SHT31;61668;45.388;11.784;2022-08-19T02:21:21;21.58;82.90
68578;SHT31;61668;45.388;11.784;2022-08-19T02:23:48;21.57;82.77
68578;SHT31;61668;45.388;11.784;2022-08-19T02:26:16;21.56;82.80
68578;SHT31;61668;45.388;11.784;2022-08-19T02:28:44;21.53;82.79
68578;SHT31;61668;45.388;11.784;2022-08-19T02:31:10;21.50;82.76
68578;SHT31;61668;45.388;11.784;2022-08-19T02:33:39;21.47;82.70
68578;SHT31;61668;45.388;11.784;2022-08-19T02:36:06;21.45;82.61
68578;SHT31;61668;45.388;11.784;2022-08-19T02:38:34;21.43;82.60
68578;SHT31;61668;45.388;11.784;2022-08-19T02:41:04;21.41;82.61
68578;SHT31;61668;45.388;11.784;2022-08-19T02:43:36;21.39;82.60
68578;SHT31;61668;45.388;11.784;2022-08-19T02:46:14;21.35;82.63
68578;SHT31;61668;45.388;11.784;2022-08-19T02:48:46;21.33;82.68
68578;SHT31;61668;45.388;11.784;2022-08-19T02:51:17;21.32;82.59
68578;SHT31;61668;45.388;11.784;2022-08-19T02:53:52;21.32;82.57
68578;SHT31;61668;45.388;11.784;2022-08-19T02:56:18;21.34;82.60
68578;SHT31;61668;45.388;11.784;2022-08-19T02:58:45;21.35;82.54
68578;SHT31;61668;45.388;11.784;2022-08-19T03:01:18;21.36;82.46
68578;SHT31;61668;45.388;11.784;2022-08-19T03:03:50;21.38;82.46
68578;SHT31;61668;45.388;11.784;2022-08-19T03:06:16;21.37;82.24
68578;SHT31;61668;45.388;11.784;2022-08-19T03:08:43;21.35;82.18
68578;SHT31;61668;45.388;11.784;2022-08-19T03:11:21;21.32;82.20
68578;SHT31;61668;45.388;11.784;2022-08-19T03:13:55;21.29;82.25
68578;SHT31;61668;45.388;11.784;2022-08-19T03:16:23;21.27;82.16
68578;SHT31;61668;45.388;11.784;2022-08-19T03:18:52;21.25;82.14
68578;SHT31;61668;45.388;11.784;2022-08-19T03:21:24;21.24;82.12
68578;SHT31;61668;45.388;11.784;2022-08-19T03:23:55;21.23;82.11
68578;SHT31;61668;45.388;11.784;2022-08-19T03:26:26;21.24;82.13
68578;SHT31;61668;45.388;11.784;2022-08-19T03:28:52;21.25;82.15
68578;SHT31;61668;45.388;11.784;2022-08-19T03:31:19;21.24;82.13
68578;SHT31;61668;45.388;11.784;2022-08-19T03:33:47;21.24;82.20
68578;SHT31;61668;45.388;11.784;2022-08-19T03:36:16;21.22;82.11
68578;SHT31;61668;45.388;11.784;2022-08-19T03:38:50;21.21;82.08
68578;SHT31;61668;45.388;11.784;2022-08-19T03:41:21;21.19;82.12
68578;SHT31;61668;45.388;11.784;2022-08-19T03:43:53;21.19;82.01
68578;SHT31;61668;45.388;11.784;2022-08-19T03:46:24;21.17;82.00
68578;SHT31;61668;45.388;11.784;2022-08-19T03:48:53;21.16;82.00
68578;SHT31;61668;45.388;11.784;2022-08-19T03:51:26;21.16;81.97
68578;SHT31;61668;45.388;11.784;2022-08-19T03:53:56;21.14;81.90
68578;SHT31;61668;45.388;11.784;2022-08-19T03:56:25;21.11;81.98
68578;SHT31;61668;45.388;11.784;2022-08-19T03:58:53;21.08;82.02
68578;SHT31;61668;45.388;11.784;2022-08-19T04:01:20;21.03;82.02
68578;SHT31;61668;45.388;11.784;2022-08-19T04:03:48;20.99;82.06
68578;SHT31;61668;45.388;11.784;2022-08-19T04:09:07;20.94;82.12
68578;SHT31;61668;45.388;11.784;2022-08-19T04:11:39;20.93;82.17
68578;SHT31;61668;45.388;11.784;2022-08-19T04:14:12;20.93;82.09
68578;SHT31;61668;45.388;11.784;2022-08-19T04:16:43;20.95;82.13
68578;SHT31;61668;45.388;11.784;2022-08-19T04:19:11;20.96;82.19
68578;SHT31;61668;45.388;11.784;2022-08-19T04:21:38;20.98;82.21
68578;SHT31;61668;45.388;11.784;2022-08-19T04:24:05;20.99;82.20
68578;SHT31;61668;45.388;11.784;2022-08-19T04:26:33;20.98;82.27
68578;SHT31;61668;45.388;11.784;2022-08-19T04:29:03;21.01;82.20
68578;SHT31;61668;45.388;11.784;2022-08-19T04:31:34;21.02;82.11
68578;SHT31;61668;45.388;11.784;2022-08-19T04:34:01;21.02;82.10
68578;SHT31;61668;45.388;11.784;2022-08-19T04:36:32;21.04;82.13
68578;SHT31;61668;45.388;11.784;2022-08-19T04:39:01;21.07;82.16
68578;SHT31;61668;45.388;11.784;2022-08-19T04:41:32;21.08;82.17
68578;SHT31;61668;45.388;11.784;2022-08-19T04:44:16;21.08;82.21
68578;SHT31;61668;45.388;11.784;2022-08-19T04:46:46;21.06;82.21
68578;SHT31;61668;45.388;11.784;2022-08-19T04:49:14;21.03;82.29
68578;SHT31;61668;45.388;11.784;2022-08-19T04:51:42;21.05;82.36
68578;SHT31;61668;45.388;11.784;2022-08-19T04:54:10;21.05;82.34
68578;SHT31;61668;45.388;11.784;2022-08-19T04:56:38;21.05;82.27
68578;SHT31;61668;45.388;11.784;2022-08-19T04:59:05;21.06;82.27
68578;SHT31;61668;45.388;11.784;2022-08-19T05:01:31;21.06;82.22
68578;SHT31;61668;45.388;11.784;2022-08-19T05:04:01;21.07;82.12
68578;SHT31;61668;45.388;11.784;2022-08-19T05:06:30;21.06;82.07
68578;SHT31;61668;45.388;11.784;2022-08-19T05:08:59;21.06;82.03
68578;SHT31;61668;45.388;11.784;2022-08-19T05:11:29;21.05;81.87
68578;SHT31;61668;45.388;11.784;2022-08-19T05:14:00;21.08;81.98
68578;SHT31;61668;45.388;11.784;2022-08-19T05:16:26;21.13;81.99
68578;SHT31;61668;45.388;11.784;2022-08-19T05:18:53;21.18;81.98
68578;SHT31;61668;45.388;11.784;2022-08-19T05:21:39;21.24;81.79
68578;SHT31;61668;45.388;11.784;2022-08-19T05:24:26;21.29;81.64
68578;SHT31;61668;45.388;11.784;2022-08-19T05:26:54;21.33;81.37
68578;SHT31;61668;45.388;11.784;2022-08-19T05:29:25;21.34;81.22
68578;SHT31;61668;45.388;11.784;2022-08-19T05:31:53;21.32;81.18
68578;SHT31;61668;45.388;11.784;2022-08-19T05:34:21;21.31;81.06
68578;SHT31;61668;45.388;11.784;2022-08-19T05:36:51;21.32;80.87
68578;SHT31;61668;45.388;11.784;2022-08-19T05:39:23;21.37;80.64
68578;SHT31;61668;45.388;11.784;2022-08-19T05:41:56;21.43;80.49
68578;SHT31;61668;45.388;11.784;2022-08-19T05:44:26;21.50;80.39
68578;SHT31;61668;45.388;11.784;2022-08-19T05:46:58;21.62;80.52
68578;SHT31;61668;45.388;11.784;2022-08-19T05:49:27;21.71;80.55
68578;SHT31;61668;45.388;11.784;2022-08-19T05:51:54;21.76;80.55
68578;SHT31;61668;45.388;11.784;2022-08-19T05:54:21;21.80;80.66
68578;SHT31;61668;45.388;11.784;2022-08-19T05:56:48;21.85;80.59
68578;SHT31;61668;45.388;11.784;2022-08-19T05:59:15;21.89;80.35
68578;SHT31;61668;45.388;11.784;2022-08-19T06:01:43;21.93;80.19
68578;SHT31;61668;45.388;11.784;2022-08-19T06:04:11;21.97;80.01
68578;SHT31;61668;45.388;11.784;2022-08-19T06:06:43;21.99;79.99
68578;SHT31;61668;45.388;11.784;2022-08-19T06:09:11;21.99;79.93
68578;SHT31;61668;45.388;11.784;2022-08-19T06:11:39;22.01;80.16
68578;SHT31;61668;45.388;11.784;2022-08-19T06:14:15;22.04;80.04
68578;SHT31;61668;45.388;11.784;2022-08-19T06:16:46;22.08;80.11
68578;SHT31;61668;45.388;11.784;2022-08-19T06:19:13;22.12;80.02
68578;SHT31;61668;45.388;11.784;2022-08-19T06:21:43;22.18;80.12
68578;SHT31;61668;45.388;11.784;2022-08-19T06:24:12;22.26;79.99
68578;SHT31;61668;45.388;11.784;2022-08-19T06:26:42;22.32;79.93
68578;SHT31;61668;45.388;11.784;2022-08-19T06:29:11;22.36;79.71
68578;SHT31;61668;45.388;11.784;2022-08-19T06:31:41;22.37;79.70
68578;SHT31;61668;45.388;11.784;2022-08-19T06:34:11;22.41;79.63
68578;SHT31;61668;45.388;11.784;2022-08-19T06:36:40;22.43;79.15
68578;SHT31;61668;45.388;11.784;2022-08-19T06:39:25;22.43;78.92
68578;SHT31;61668;45.388;11.784;2022-08-19T06:41:54;22.42;78.53
68578;SHT31;61668;45.388;11.784;2022-08-19T06:44:26;22.40;78.53
68578;SHT31;61668;45.388;11.784;2022-08-19T06:46:56;22.38;78.61
68578;SHT31;61668;45.388;11.784;2022-08-19T06:49:22;22.38;78.41
68578;SHT31;61668;45.388;11.784;2022-08-19T06:51:50;22.39;78.28
68578;SHT31;61668;45.388;11.784;2022-08-19T06:54:16;22.37;78.01
68578;SHT31;61668;45.388;11.784;2022-08-19T06:56:43;22.33;77.91
68578;SHT31;61668;45.388;11.784;2022-08-19T06:59:12;22.27;77.73
68578;SHT31;61668;45.388;11.784;2022-08-19T07:01:52;22.19;77.32
68578;SHT31;61668;45.388;11.784;2022-08-19T07:04:22;22.10;77.37
68578;SHT31;61668;45.388;11.784;2022-08-19T07:06:57;22.07;77.53
68578;SHT31;61668;45.388;11.784;2022-08-19T07:09:39;22.05;77.65
68578;SHT31;61668;45.388;11.784;2022-08-19T07:12:09;22.04;77.70
68578;SHT31;61668;45.388;11.784;2022-08-19T07:14:40;22.05;77.66
68578;SHT31;61668;45.388;11.784;2022-08-19T07:17:08;22.05;77.76
68578;SHT31;61668;45.388;11.784;2022-08-19T07:19:36;22.05;77.96
68578;SHT31;61668;45.388;11.784;2022-08-19T07:22:04;22.04;78.08
68578;SHT31;61668;45.388;11.784;2022-08-19T07:24:32;22.04;78.04
68578;SHT31;61668;45.388;11.784;2022-08-19T07:26:59;22.04;78.10
68578;SHT31;61668;45.388;11.784;2022-08-19T07:29:29;22.04;78.25
68578;SHT31;61668;45.388;11.784;2022-08-19T07:31:58;22.04;78.38
68578;SHT31;61668;45.388;11.784;2022-08-19T07:34:25;22.06;78.54
68578;SHT31;61668;45.388;11.784;2022-08-19T07:36:54;22.08;78.68
68578;SHT31;61668;45.388;11.784;2022-08-19T07:39:26;22.10;78.74
68578;SHT31;61668;45.388;11.784;2022-08-19T07:41:55;22.10;78.66
68578;SHT31;61668;45.388;11.784;2022-08-19T07:44:24;22.11;78.72
68578;SHT31;61668;45.388;11.784;2022-08-19T07:46:51;22.10;78.58
68578;SHT31;61668;45.388;11.784;2022-08-19T07:49:21;22.10;78.39
68578;SHT31;61668;45.388;11.784;2022-08-19T07:52:09;22.12;78.20
68578;SHT31;61668;45.388;11.784;2022-08-19T07:54:35;22.11;78.31
68578;SHT31;61668;45.388;11.784;2022-08-19T07:57:02;22.10;78.13
68578;SHT31;61668;45.388;11.784;2022-08-19T07:59:28;22.09;78.15
68578;SHT31;61668;45.388;11.784;2022-08-19T08:01:55;22.09;78.24
68578;SHT31;61668;45.388;11.784;2022-08-19T08:04:22;22.12;78.03
68578;SHT31;61668;45.388;11.784;2022-08-19T08:07:06;22.11;77.78
68578;SHT31;61668;45.388;11.784;2022-08-19T08:09:51;22.11;78.00
68578;SHT31;61668;45.388;11.784;2022-08-19T08:14:50;22.04;78.57
68578;SHT31;61668;45.388;11.784;2022-08-19T08:17:20;21.98;78.72
68578;SHT31;61668;45.388;11.784;2022-08-19T08:19:48;21.85;78.91
68578;SHT31;61668;45.388;11.784;2022-08-19T08:22:16;21.71;79.19
68578;SHT31;61668;45.388;11.784;2022-08-19T08:25:05;21.60;79.38
68578;SHT31;61668;45.388;11.784;2022-08-19T08:27:38;21.55;79.37
68578;SHT31;61668;45.388;11.784;2022-08-19T08:30:09;21.53;79.47
68578;SHT31;61668;45.388;11.784;2022-08-19T08:32:45;21.54;79.66
68578;SHT31;61668;45.388;11.784;2022-08-19T08:35:12;21.55;79.98
68578;SHT31;61668;45.388;11.784;2022-08-19T08:37:42;21.55;80.30
68578;SHT31;61668;45.388;11.784;2022-08-19T08:40:16;21.58;80.30
68578;SHT31;61668;45.388;11.784;2022-08-19T08:43:07;21.61;80.41
68578;SHT31;61668;45.388;11.784;2022-08-19T08:45:38;21.63;80.55
68578;SHT31;61668;45.388;11.784;2022-08-19T08:48:18;21.67;80.81
68578;SHT31;61668;45.388;11.784;2022-08-19T08:51:03;21.72;80.88
68578;SHT31;61668;45.388;11.784;2022-08-19T08:53:35;21.73;80.92
68578;SHT31;61668;45.388;11.784;2022-08-19T08:56:02;21.74;81.05
68578;SHT31;61668;45.388;11.784;2022-08-19T08:58:41;21.75;81.15
68578;SHT31;61668;45.388;11.784;2022-08-19T09:01:13;21.75;81.10
68578;SHT31;61668;45.388;11.784;2022-08-19T09:03:40;21.77;81.08
68578;SHT31;61668;45.388;11.784;2022-08-19T09:09:14;21.78;81.12
68578;SHT31;61668;45.388;11.784;2022-08-19T09:11:57;21.77;81.33
68578;SHT31;61668;45.388;11.784;2022-08-19T09:17:06;21.77;81.39
68578;SHT31;61668;45.388;11.784;2022-08-19T09:19:35;21.81;81.31
68578;SHT31;61668;45.388;11.784;2022-08-19T09:22:35;21.88;81.45
68578;SHT31;61668;45.388;11.784;2022-08-19T09:25:03;22.04;81.58
68578;SHT31;61668;45.388;11.784;2022-08-19T09:27:30;22.23;81.76
68578;SHT31;61668;45.388;11.784;2022-08-19T09:29:57;22.38;81.23
68578;SHT31;61668;45.388;11.784;2022-08-19T09:32:23;22.46;81.20
68578;SHT31;61668;45.388;11.784;2022-08-19T09:34:51;22.57;81.36
68578;SHT31;61668;45.388;11.784;2022-08-19T09:37:19;22.70;80.82
68578;SHT31;61668;45.388;11.784;2022-08-19T09:39:46;22.75;80.04
68578;SHT31;61668;45.388;11.784;2022-08-19T09:42:12;22.80;80.37
68578;SHT31;61668;45.388;11.784;2022-08-19T09:44:42;22.85;80.32
68578;SHT31;61668;45.388;11.784;2022-08-19T09:47:09;22.93;80.34
68578;SHT31;61668;45.388;11.784;2022-08-19T09:49:37;23.04;79.94
68578;SHT31;61668;45.388;11.784;2022-08-19T09:52:04;23.18;79.94
68578;SHT31;61668;45.388;11.784;2022-08-19T09:54:33;23.33;79.78
68578;SHT31;61668;45.388;11.784;2022-08-19T09:56:59;23.47;79.50
68578;SHT31;61668;45.388;11.784;2022-08-19T09:59:28;23.57;78.76
68578;SHT31;61668;45.388;11.784;2022-08-19T10:01:54;23.66;78.45
68578;SHT31;61668;45.388;11.784;2022-08-19T10:04:20;23.75;77.92
68578;SHT31;61668;45.388;11.784;2022-08-19T10:06:47;23.85;78.01
68578;SHT31;61668;45.388;11.784;2022-08-19T10:09:15;23.94;76.73
68578;SHT31;61668;45.388;11.784;2022-08-19T10:11:43;24.01;76.24
68578;SHT31;61668;45.388;11.784;2022-08-19T10:14:13;24.10;76.10
68578;SHT31;61668;45.388;11.784;2022-08-19T10:16:38;24.25;76.29
68578;SHT31;61668;45.388;11.784;2022-08-19T10:19:06;24.38;75.56
68578;SHT31;61668;45.388;11.784;2022-08-19T10:21:32;24.49;75.13
68578;SHT31;61668;45.388;11.784;2022-08-19T10:24:00;24.54;74.42
68578;SHT31;61668;45.388;11.784;2022-08-19T10:26:32;24.54;73.73
68578;SHT31;61668;45.388;11.784;2022-08-19T10:29:02;24.53;73.98
68578;SHT31;61668;45.388;11.784;2022-08-19T10:31:31;24.58;73.84
68578;SHT31;61668;45.388;11.784;2022-08-19T10:33:58;24.68;73.57
68578;SHT31;61668;45.388;11.784;2022-08-19T10:36:30;24.75;73.16
68578;SHT31;61668;45.388;11.784;2022-08-19T10:39:01;24.83;72.72
68578;SHT31;61668;45.388;11.784;2022-08-19T10:41:32;24.92;72.61
68578;SHT31;61668;45.388;11.784;2022-08-19T10:44:02;25.02;71.76
68578;SHT31;61668;45.388;11.784;2022-08-19T10:46:33;25.08;71.50
68578;SHT31;61668;45.388;11.784;2022-08-19T10:49:04;25.10;70.97
68578;SHT31;61668;45.388;11.784;2022-08-19T10:51:31;25.11;71.43
68578;SHT31;61668;45.388;11.784;2022-08-19T10:54:16;25.22;71.94
68578;SHT31;61668;45.388;11.784;2022-08-19T10:56:42;25.36;71.38
68578;SHT31;61668;45.388;11.784;2022-08-19T10:59:35;25.46;70.53
68578;SHT31;61668;45.388;11.784;2022-08-19T11:02:02;25.53;70.21
68578;SHT31;61668;45.388;11.784;2022-08-19T11:04:32;25.59;70.10
68578;SHT31;61668;45.388;11.784;2022-08-19T11:06:58;25.62;69.60
68578;SHT31;61668;45.388;11.784;2022-08-19T11:09:24;25.60;69.47
68578;SHT31;61668;45.388;11.784;2022-08-19T11:11:55;25.61;69.87
68578;SHT31;61668;45.388;11.784;2022-08-19T11:14:22;25.72;69.90
68578;SHT31;61668;45.388;11.784;2022-08-19T11:16:51;25.84;69.44
68578;SHT31;61668;45.388;11.784;2022-08-19T11:19:21;26.02;69.38
68578;SHT31;61668;45.388;11.784;2022-08-19T11:21:49;26.30;69.54
68578;SHT31;61668;45.388;11.784;2022-08-19T11:24:18;26.59;68.28
68578;SHT31;61668;45.388;11.784;2022-08-19T11:26:47;26.85;67.19
68578;SHT31;61668;45.388;11.784;2022-08-19T11:29:15;27.05;66.28
68578;SHT31;61668;45.388;11.784;2022-08-19T11:31:44;27.28;65.76
68578;SHT31;61668;45.388;11.784;2022-08-19T11:34:14;27.54;65.37
68578;SHT31;61668;45.388;11.784;2022-08-19T11:36:46;27.83;65.29
68578;SHT31;61668;45.388;11.784;2022-08-19T11:39:14;28.07;63.77
68578;SHT31;61668;45.388;11.784;2022-08-19T11:41:42;28.30;63.09
68578;SHT31;61668;45.388;11.784;2022-08-19T11:44:08;28.48;61.78
68578;SHT31;61668;45.388;11.784;2022-08-19T11:46:34;28.60;61.73
68578;SHT31;61668;45.388;11.784;2022-08-19T11:49:03;28.67;60.08
68578;SHT31;61668;45.388;11.784;2022-08-19T11:51:31;28.73;60.16
68578;SHT31;61668;45.388;11.784;2022-08-19T11:53:59;28.74;59.27
68578;SHT31;61668;45.388;11.784;2022-08-19T11:56:25;28.74;59.27
68578;SHT31;61668;45.388;11.784;2022-08-19T11:58:52;28.78;58.44
68578;SHT31;61668;45.388;11.784;2022-08-19T12:01:19;28.86;58.09
68578;SHT31;61668;45.388;11.784;2022-08-19T12:03:48;28.99;58.41
68578;SHT31;61668;45.388;11.784;2022-08-19T12:06:19;29.12;58.89
68578;SHT31;61668;45.388;11.784;2022-08-19T12:08:53;29.37;58.51
68578;SHT31;61668;45.388;11.784;2022-08-19T12:11:21;29.60;57.64
68578;SHT31;61668;45.388;11.784;2022-08-19T12:13:48;29.80;57.84
68578;SHT31;61668;45.388;11.784;2022-08-19T12:16:15;30.06;58.13
68578;SHT31;61668;45.388;11.784;2022-08-19T12:18:45;30.34;57.55
68578;SHT31;61668;45.388;11.784;2022-08-19T12:21:12;30.59;56.88
68578;SHT31;61668;45.388;11.784;2022-08-19T12:23:40;30.70;55.57
68578;SHT31;61668;45.388;11.784;2022-08-19T12:26:08;30.75;53.85
68578;SHT31;61668;45.388;11.784;2022-08-19T12:28:35;30.75;53.69
68578;SHT31;61668;45.388;11.784;2022-08-19T12:31:01;30.79;53.38
68578;SHT31;61668;45.388;11.784;2022-08-19T12:33:27;30.78;53.12
68578;SHT31;61668;45.388;11.784;2022-08-19T12:35:53;30.81;52.74
68578;SHT31;61668;45.388;11.784;2022-08-19T12:38:20;30.87;51.98
68578;SHT31;61668;45.388;11.784;2022-08-19T12:40:49;31.00;51.82
68578;SHT31;61668;45.388;11.784;2022-08-19T12:43:17;31.09;51.11
68578;SHT31;61668;45.388;11.784;2022-08-19T12:45:44;31.24;52.06
68578;SHT31;61668;45.388;11.784;2022-08-19T12:48:11;31.43;51.76
68578;SHT31;61668;45.388;11.784;2022-08-19T12:50:40;31.60;51.11
68578;SHT31;61668;45.388;11.784;2022-08-19T12:53:09;31.69;50.88
68578;SHT31;61668;45.388;11.784;2022-08-19T12:55:35;31.78;49.68
68578;SHT31;61668;45.388;11.784;2022-08-19T12:58:01;31.81;50.08
68578;SHT31;61668;45.388;11.784;2022-08-19T13:00:27;31.71;51.70
68578;SHT31;61668;45.388;11.784;2022-08-19T13:02:54;31.59;52.24
68578;SHT31;61668;45.388;11.784;2022-08-19T13:05:24;31.39;52.23
68578;SHT31;61668;45.388;11.784;2022-08-19T13:07:54;31.14;53.03
68578;SHT31;61668;45.388;11.784;2022-08-19T13:10:23;30.89;53.29
68578;SHT31;61668;45.388;11.784;2022-08-19T13:13:00;30.67;53.52
68578;SHT31;61668;45.388;11.784;2022-08-19T13:15:28;30.43;54.01
68578;SHT31;61668;45.388;11.784;2022-08-19T13:17:56;30.23;54.67
68578;SHT31;61668;45.388;11.784;2022-08-19T13:20:23;30.09;55.21
68578;SHT31;61668;45.388;11.784;2022-08-19T13:22:50;29.99;55.38
68578;SHT31;61668;45.388;11.784;2022-08-19T13:25:16;29.85;55.31
68578;SHT31;61668;45.388;11.784;2022-08-19T13:27:44;29.73;55.48
68578;SHT31;61668;45.388;11.784;2022-08-19T13:30:15;29.61;55.88
68578;SHT31;61668;45.388;11.784;2022-08-19T13:33:01;29.47;55.43
68578;SHT31;61668;45.388;11.784;2022-08-19T13:35:37;29.28;55.64
68578;SHT31;61668;45.388;11.784;2022-08-19T13:38:03;29.14;55.80
68578;SHT31;61668;45.388;11.784;2022-08-19T13:40:30;29.01;56.20
68578;SHT31;61668;45.388;11.784;2022-08-19T13:42:58;28.92;56.66
68578;SHT31;61668;45.388;11.784;2022-08-19T13:45:26;28.81;56.32
68578;SHT31;61668;45.388;11.784;2022-08-19T13:47:55;28.65;56.39
68578;SHT31;61668;45.388;11.784;2022-08-19T13:50:23;28.55;56.75
68578;SHT31;61668;45.388;11.784;2022-08-19T13:52:53;28.50;57.20
68578;SHT31;61668;45.388;11.784;2022-08-19T13:55:20;28.47;56.99
68578;SHT31;61668;45.388;11.784;2022-08-19T13:57:49;28.46;57.52
68578;SHT31;61668;45.388;11.784;2022-08-19T14:00:18;28.46;57.49
68578;SHT31;61668;45.388;11.784;2022-08-19T14:02:46;28.43;57.24
68578;SHT31;61668;45.388;11.784;2022-08-19T14:05:16;28.40;57.04
68578;SHT31;61668;45.388;11.784;2022-08-19T14:07:43;28.39;56.89
68578;SHT31;61668;45.388;11.784;2022-08-19T14:10:09;28.37;56.98
68578;SHT31;61668;45.388;11.784;2022-08-19T14:12:37;28.38;57.56
68578;SHT31;61668;45.388;11.784;2022-08-19T14:15:04;28.41;57.93
68578;SHT31;61668;45.388;11.784;2022-08-19T14:17:32;28.44;57.71
68578;SHT31;61668;45.388;11.784;2022-08-19T14:20:00;28.42;57.00
68578;SHT31;61668;45.388;11.784;2022-08-19T14:22:33;28.37;56.91
68578;SHT31;61668;45.388;11.784;2022-08-19T14:25:05;28.36;57.48
68578;SHT31;61668;45.388;11.784;2022-08-19T14:27:36;28.37;57.60
68578;SHT31;61668;45.388;11.784;2022-08-19T14:30:06;28.38;57.39
68578;SHT31;61668;45.388;11.784;2022-08-19T14:32:35;28.36;56.98
68578;SHT31;61668;45.388;11.784;2022-08-19T14:35:01;28.36;56.99
68578;SHT31;61668;45.388;11.784;2022-08-19T14:37:28;28.39;57.18
68578;SHT31;61668;45.388;11.784;2022-08-19T14:39:54;28.37;56.88
68578;SHT31;61668;45.388;11.784;2022-08-19T14:42:19;28.37;57.21
68578;SHT31;61668;45.388;11.784;2022-08-19T14:44:45;28.35;56.85
68578;SHT31;61668;45.388;11.784;2022-08-19T14:47:10;28.35;56.81
68578;SHT31;61668;45.388;11.784;2022-08-19T14:49:36;28.31;56.25
68578;SHT31;61668;45.388;11.784;2022-08-19T14:52:02;28.22;56.30
68578;SHT31;61668;45.388;11.784;2022-08-19T14:54:29;28.12;56.68
68578;SHT31;61668;45.388;11.784;2022-08-19T14:56:54;28.04;57.08
68578;SHT31;61668;45.388;11.784;2022-08-19T14:59:20;27.99;57.57
68578;SHT31;61668;45.388;11.784;2022-08-19T15:01:46;27.97;57.21
68578;SHT31;61668;45.388;11.784;2022-08-19T15:04:11;27.90;57.00
68578;SHT31;61668;45.388;11.784;2022-08-19T15:06:37;27.84;57.62
68578;SHT31;61668;45.388;11.784;2022-08-19T15:09:03;27.81;57.94
68578;SHT31;61668;45.388;11.784;2022-08-19T15:11:29;27.79;58.11
68578;SHT31;61668;45.388;11.784;2022-08-19T15:13:57;27.78;58.69
68578;SHT31;61668;45.388;11.784;2022-08-19T15:16:25;27.79;58.60
68578;SHT31;61668;45.388;11.784;2022-08-19T15:18:52;27.79;58.16
68578;SHT31;61668;45.388;11.784;2022-08-19T15:21:21;27.75;58.27
68578;SHT31;61668;45.388;11.784;2022-08-19T15:23:48;27.72;58.39
68578;SHT31;61668;45.388;11.784;2022-08-19T15:26:16;27.71;58.67
68578;SHT31;61668;45.388;11.784;2022-08-19T15:28:43;27.72;58.63
68578;SHT31;61668;45.388;11.784;2022-08-19T15:31:10;27.72;58.49
68578;SHT31;61668;45.388;11.784;2022-08-19T15:33:38;27.71;58.38
68578;SHT31;61668;45.388;11.784;2022-08-19T15:36:09;27.71;58.55
68578;SHT31;61668;45.388;11.784;2022-08-19T15:38:38;27.72;58.59
68578;SHT31;61668;45.388;11.784;2022-08-19T15:41:13;27.73;58.61